sensor_id;sensor_type;location;lat;lon;timestamp;P1;durP1;ratioP1;P2;durP2;ratioP2
5539;SDS011;2792;52.452;9.752;2022-12-01T00:00:22;60.33;;;30.70;;
5539;SDS011;2792;52.452;9.752;2022-12-01T00:02:48;51.30;;;27.27;;
5539;SDS011;2792;52.452;9.752;2022-12-01T00:05:16;53.97;;;30.13;;
5539;SDS011;2792;52.452;9.752;2022-12-01T00:07:43;54.63;;;28.70;;
5539;SDS011;2792;52.452;9.752;2022-12-01T00:10:10;60.13;;;31.60;;
5539;SDS011;2792;52.452;9.752;2022-12-01T00:12:51;57.53;;;30.10;;
5539;SDS011;2792;52.452;9.752;2022-12-01T00:15:17;62.43;;;30.07;;
5539;SDS011;2792;52.452;9.752;2022-12-01T00:17:44;57.87;;;29.60;;
5539;SDS011;2792;52.452;9.752;2022-12-01T00:20:11;63.47;;;31.37;;
5539;SDS011;2792;52.452;9.752;2022-12-01T00:22:42;55.50;;;29.23;;
5539;SDS011;2792;52.452;9.752;2022-12-01T00:25:08;57.90;;;30.93;;
5539;SDS011;2792;52.452;9.752;2022-12-01T00:27:35;62.23;;;31.20;;
5539;SDS011;2792;52.452;9.752;2022-12-01T00:30:02;57.80;;;30.70;;
5539;SDS011;2792;52.452;9.752;2022-12-01T00:32:29;66.43;;;32.83;;
5539;SDS011;2792;52.452;9.752;2022-12-01T00:34:56;60.43;;;32.43;;
5539;SDS011;2792;52.452;9.752;2022-12-01T00:37:22;60.57;;;31.50;;
5539;SDS011;2792;52.452;9.752;2022-12-01T00:39:50;60.33;;;31.93;;
5539;SDS011;2792;52.452;9.752;2022-12-01T00:42:17;63.80;;;32.67;;
5539;SDS011;2792;52.452;9.752;2022-12-01T00:44:44;60.03;;;30.77;;
5539;SDS011;2792;52.452;9.752;2022-12-01T00:47:11;57.97;;;32.90;;
5539;SDS011;2792;52.452;9.752;2022-12-01T00:49:38;60.30;;;29.80;;
5539;SDS011;2792;52.452;9.752;2022-12-01T00:52:04;58.33;;;30.33;;
5539;SDS011;2792;52.452;9.752;2022-12-01T00:54:32;63.57;;;31.20;;
5539;SDS011;2792;52.452;9.752;2022-12-01T00:57:00;59.67;;;32.13;;
5539;SDS011;2792;52.452;9.752;2022-12-01T00:59:26;62.87;;;30.87;;
5539;SDS011;2792;52.452;9.752;2022-12-01T01:01:53;66.67;;;33.00;;
5539;SDS011;2792;52.452;9.752;2022-12-01T01:04:19;61.30;;;32.13;;
5539;SDS011;2792;52.452;9.752;2022-12-01T01:06:46;60.33;;;31.20;;
5539;SDS011;2792;52.452;9.752;2022-12-01T01:09:13;64.67;;;32.10;;
5539;SDS011;2792;52.452;9.752;2022-12-01T01:11:40;57.73;;;29.40;;
5539;SDS011;2792;52.452;9.752;2022-12-01T01:14:09;57.77;;;30.97;;
5539;SDS011;2792;52.452;9.752;2022-12-01T01:16:35;63.60;;;32.80;;
5539;SDS011;2792;52.452;9.752;2022-12-01T01:19:02;66.60;;;34.60;;
5539;SDS011;2792;52.452;9.752;2022-12-01T01:21:28;63.27;;;33.40;;
5539;SDS011;2792;52.452;9.752;2022-12-01T01:23:55;62.20;;;32.80;;
5539;SDS011;2792;52.452;9.752;2022-12-01T01:26:22;62.17;;;31.77;;
5539;SDS011;2792;52.452;9.752;2022-12-01T01:28:50;64.33;;;33.40;;
5539;SDS011;2792;52.452;9.752;2022-12-01T01:31:19;66.77;;;33.77;;
5539;SDS011;2792;52.452;9.752;2022-12-01T01:33:46;59.80;;;31.70;;
5539;SDS011;2792;52.452;9.752;2022-12-01T01:36:14;72.93;;;34.73;;
5539;SDS011;2792;52.452;9.752;2022-12-01T01:38:41;66.17;;;32.43;;
5539;SDS011;2792;52.452;9.752;2022-12-01T01:41:08;68.83;;;33.90;;
5539;SDS011;2792;52.452;9.752;2022-12-01T01:43:37;64.67;;;32.40;;
5539;SDS011;2792;52.452;9.752;2022-12-01T01:46:05;62.87;;;32.30;;
5539;SDS011;2792;52.452;9.752;2022-12-01T01:48:34;63.00;;;32.80;;
5539;SDS011;2792;52.452;9.752;2022-12-01T01:51:01;64.43;;;32.37;;
5539;SDS011;2792;52.452;9.752;2022-12-01T01:53:28;66.80;;;33.47;;
5539;SDS011;2792;52.452;9.752;2022-12-01T01:55:55;63.63;;;33.30;;
5539;SDS011;2792;52.452;9.752;2022-12-01T01:58:22;62.10;;;31.90;;
5539;SDS011;2792;52.452;9.752;2022-12-01T02:00:49;61.33;;;33.10;;
5539;SDS011;2792;52.452;9.752;2022-12-01T02:03:16;83.17;;;34.83;;
5539;SDS011;2792;52.452;9.752;2022-12-01T02:05:44;63.93;;;34.27;;
5539;SDS011;2792;52.452;9.752;2022-12-01T02:08:11;72.03;;;34.17;;
5539;SDS011;2792;52.452;9.752;2022-12-01T02:10:43;63.90;;;32.00;;
5539;SDS011;2792;52.452;9.752;2022-12-01T02:13:48;67.37;;;33.00;;
5539;SDS011;2792;52.452;9.752;2022-12-01T02:16:17;70.60;;;34.60;;
5539;SDS011;2792;52.452;9.752;2022-12-01T02:18:50;71.80;;;32.37;;
5539;SDS011;2792;52.452;9.752;2022-12-01T02:21:23;71.30;;;34.60;;
5539;SDS011;2792;52.452;9.752;2022-12-01T02:24:07;67.23;;;33.80;;
5539;SDS011;2792;52.452;9.752;2022-12-01T02:26:50;67.93;;;31.73;;
5539;SDS011;2792;52.452;9.752;2022-12-01T02:29:25;62.17;;;31.80;;
5539;SDS011;2792;52.452;9.752;2022-12-01T02:32:09;68.60;;;33.00;;
5539;SDS011;2792;52.452;9.752;2022-12-01T02:34:39;63.17;;;32.80;;
5539;SDS011;2792;52.452;9.752;2022-12-01T02:37:09;70.93;;;32.80;;
5539;SDS011;2792;52.452;9.752;2022-12-01T02:39:42;64.33;;;32.87;;
5539;SDS011;2792;52.452;9.752;2022-12-01T02:42:15;69.03;;;32.40;;
5539;SDS011;2792;52.452;9.752;2022-12-01T02:45:06;70.10;;;32.10;;
5539;SDS011;2792;52.452;9.752;2022-12-01T02:47:36;67.20;;;33.50;;
5539;SDS011;2792;52.452;9.752;2022-12-01T02:50:04;64.33;;;32.67;;
5539;SDS011;2792;52.452;9.752;2022-12-01T02:52:32;67.00;;;33.43;;
5539;SDS011;2792;52.452;9.752;2022-12-01T02:54:59;66.23;;;34.27;;
5539;SDS011;2792;52.452;9.752;2022-12-01T02:57:26;73.40;;;33.67;;
5539;SDS011;2792;52.452;9.752;2022-12-01T02:59:55;67.20;;;32.60;;
5539;SDS011;2792;52.452;9.752;2022-12-01T03:02:23;81.80;;;37.07;;
5539;SDS011;2792;52.452;9.752;2022-12-01T03:04:58;76.23;;;33.70;;
5539;SDS011;2792;52.452;9.752;2022-12-01T03:07:32;73.87;;;34.83;;
5539;SDS011;2792;52.452;9.752;2022-12-01T03:10:07;76.03;;;32.60;;
5539;SDS011;2792;52.452;9.752;2022-12-01T03:12:43;68.97;;;32.07;;
5539;SDS011;2792;52.452;9.752;2022-12-01T03:15:17;72.63;;;33.77;;
5539;SDS011;2792;52.452;9.752;2022-12-01T03:17:52;72.50;;;35.00;;
5539;SDS011;2792;52.452;9.752;2022-12-01T03:20:24;72.87;;;35.67;;
5539;SDS011;2792;52.452;9.752;2022-12-01T03:22:54;80.30;;;35.20;;
5539;SDS011;2792;52.452;9.752;2022-12-01T03:25:25;77.13;;;36.00;;
5539;SDS011;2792;52.452;9.752;2022-12-01T03:27:53;86.03;;;37.50;;
5539;SDS011;2792;52.452;9.752;2022-12-01T03:30:21;91.67;;;39.50;;
5539;SDS011;2792;52.452;9.752;2022-12-01T03:32:50;95.60;;;39.20;;
5539;SDS011;2792;52.452;9.752;2022-12-01T03:35:20;88.30;;;37.93;;
5539;SDS011;2792;52.452;9.752;2022-12-01T03:37:50;79.93;;;37.47;;
5539;SDS011;2792;52.452;9.752;2022-12-01T03:40:19;99.03;;;39.20;;
5539;SDS011;2792;52.452;9.752;2022-12-01T03:42:51;98.50;;;38.10;;
5539;SDS011;2792;52.452;9.752;2022-12-01T03:45:20;99.93;;;40.00;;
5539;SDS011;2792;52.452;9.752;2022-12-01T03:47:49;94.67;;;39.10;;
5539;SDS011;2792;52.452;9.752;2022-12-01T03:50:16;88.23;;;37.00;;
5539;SDS011;2792;52.452;9.752;2022-12-01T03:52:44;100.90;;;40.97;;
5539;SDS011;2792;52.452;9.752;2022-12-01T03:55:16;98.03;;;37.63;;
5539;SDS011;2792;52.452;9.752;2022-12-01T03:57:46;100.27;;;39.60;;
5539;SDS011;2792;52.452;9.752;2022-12-01T04:00:16;97.80;;;39.33;;
5539;SDS011;2792;52.452;9.752;2022-12-01T04:02:44;98.73;;;39.60;;
5539;SDS011;2792;52.452;9.752;2022-12-01T04:05:13;100.07;;;37.10;;
5539;SDS011;2792;52.452;9.752;2022-12-01T04:07:39;95.23;;;38.93;;
5539;SDS011;2792;52.452;9.752;2022-12-01T04:10:06;90.30;;;38.90;;
5539;SDS011;2792;52.452;9.752;2022-12-01T04:12:35;101.53;;;40.23;;
5539;SDS011;2792;52.452;9.752;2022-12-01T04:15:01;96.27;;;39.90;;
5539;SDS011;2792;52.452;9.752;2022-12-01T04:17:29;95.23;;;40.27;;
5539;SDS011;2792;52.452;9.752;2022-12-01T04:19:56;92.33;;;36.67;;
5539;SDS011;2792;52.452;9.752;2022-12-01T04:22:23;92.00;;;38.33;;
5539;SDS011;2792;52.452;9.752;2022-12-01T04:24:50;99.03;;;41.47;;
5539;SDS011;2792;52.452;9.752;2022-12-01T04:27:17;91.30;;;37.33;;
5539;SDS011;2792;52.452;9.752;2022-12-01T04:29:45;97.50;;;36.77;;
5539;SDS011;2792;52.452;9.752;2022-12-01T04:32:12;87.30;;;36.47;;
5539;SDS011;2792;52.452;9.752;2022-12-01T04:34:38;89.90;;;35.70;;
5539;SDS011;2792;52.452;9.752;2022-12-01T04:37:05;91.77;;;35.70;;
5539;SDS011;2792;52.452;9.752;2022-12-01T04:39:32;102.27;;;35.10;;
5539;SDS011;2792;52.452;9.752;2022-12-01T04:41:59;92.17;;;35.77;;
5539;SDS011;2792;52.452;9.752;2022-12-01T04:44:25;91.10;;;35.90;;
5539;SDS011;2792;52.452;9.752;2022-12-01T04:46:53;96.10;;;39.17;;
5539;SDS011;2792;52.452;9.752;2022-12-01T04:49:20;92.53;;;37.50;;
5539;SDS011;2792;52.452;9.752;2022-12-01T04:51:47;102.27;;;38.50;;
5539;SDS011;2792;52.452;9.752;2022-12-01T04:54:14;102.67;;;38.80;;
5539;SDS011;2792;52.452;9.752;2022-12-01T04:56:40;82.87;;;34.67;;
5539;SDS011;2792;52.452;9.752;2022-12-01T04:59:07;90.73;;;35.83;;
5539;SDS011;2792;52.452;9.752;2022-12-01T05:01:34;100.10;;;36.17;;
5539;SDS011;2792;52.452;9.752;2022-12-01T05:04:02;85.00;;;34.60;;
5539;SDS011;2792;52.452;9.752;2022-12-01T05:06:29;103.00;;;39.10;;
5539;SDS011;2792;52.452;9.752;2022-12-01T05:08:56;102.43;;;38.43;;
5539;SDS011;2792;52.452;9.752;2022-12-01T05:11:25;86.33;;;35.57;;
5539;SDS011;2792;52.452;9.752;2022-12-01T05:13:52;95.37;;;36.03;;
5539;SDS011;2792;52.452;9.752;2022-12-01T05:16:20;96.33;;;37.07;;
5539;SDS011;2792;52.452;9.752;2022-12-01T05:18:47;98.23;;;35.40;;
5539;SDS011;2792;52.452;9.752;2022-12-01T05:21:16;98.93;;;35.53;;
5539;SDS011;2792;52.452;9.752;2022-12-01T05:23:42;84.87;;;34.53;;
5539;SDS011;2792;52.452;9.752;2022-12-01T05:26:09;92.00;;;34.73;;
5539;SDS011;2792;52.452;9.752;2022-12-01T05:28:36;86.00;;;34.27;;
5539;SDS011;2792;52.452;9.752;2022-12-01T05:31:03;102.97;;;37.10;;
5539;SDS011;2792;52.452;9.752;2022-12-01T05:33:29;87.63;;;33.93;;
5539;SDS011;2792;52.452;9.752;2022-12-01T05:35:56;84.23;;;33.83;;
5539;SDS011;2792;52.452;9.752;2022-12-01T05:38:24;87.93;;;31.70;;
5539;SDS011;2792;52.452;9.752;2022-12-01T05:40:51;78.20;;;32.40;;
5539;SDS011;2792;52.452;9.752;2022-12-01T05:43:18;92.70;;;34.53;;
5539;SDS011;2792;52.452;9.752;2022-12-01T05:45:45;87.60;;;35.90;;
5539;SDS011;2792;52.452;9.752;2022-12-01T05:48:13;99.10;;;35.03;;
5539;SDS011;2792;52.452;9.752;2022-12-01T05:50:40;97.47;;;35.90;;
5539;SDS011;2792;52.452;9.752;2022-12-01T05:53:07;112.70;;;37.90;;
5539;SDS011;2792;52.452;9.752;2022-12-01T05:55:36;103.37;;;35.27;;
5539;SDS011;2792;52.452;9.752;2022-12-01T05:58:03;95.87;;;36.67;;
5539;SDS011;2792;52.452;9.752;2022-12-01T06:00:29;102.97;;;36.20;;
5539;SDS011;2792;52.452;9.752;2022-12-01T06:02:56;110.80;;;40.53;;
5539;SDS011;2792;52.452;9.752;2022-12-01T06:05:22;103.27;;;35.30;;
5539;SDS011;2792;52.452;9.752;2022-12-01T06:07:49;95.80;;;34.83;;
5539;SDS011;2792;52.452;9.752;2022-12-01T06:10:15;99.73;;;34.53;;
5539;SDS011;2792;52.452;9.752;2022-12-01T06:12:43;109.13;;;36.57;;
5539;SDS011;2792;52.452;9.752;2022-12-01T06:15:10;104.30;;;35.67;;
5539;SDS011;2792;52.452;9.752;2022-12-01T06:17:37;105.40;;;35.90;;
5539;SDS011;2792;52.452;9.752;2022-12-01T06:20:04;108.50;;;35.60;;
5539;SDS011;2792;52.452;9.752;2022-12-01T06:22:31;98.00;;;34.33;;
5539;SDS011;2792;52.452;9.752;2022-12-01T06:24:58;107.57;;;35.70;;
5539;SDS011;2792;52.452;9.752;2022-12-01T06:27:24;114.30;;;37.47;;
5539;SDS011;2792;52.452;9.752;2022-12-01T06:29:52;99.20;;;36.17;;
5539;SDS011;2792;52.452;9.752;2022-12-01T06:32:19;109.87;;;37.87;;
5539;SDS011;2792;52.452;9.752;2022-12-01T06:34:45;106.00;;;34.23;;
5539;SDS011;2792;52.452;9.752;2022-12-01T06:37:12;106.53;;;36.33;;
5539;SDS011;2792;52.452;9.752;2022-12-01T06:39:40;97.03;;;34.30;;
5539;SDS011;2792;52.452;9.752;2022-12-01T06:42:07;99.40;;;35.60;;
5539;SDS011;2792;52.452;9.752;2022-12-01T06:44:33;103.17;;;34.27;;
5539;SDS011;2792;52.452;9.752;2022-12-01T06:47:01;110.33;;;35.03;;
5539;SDS011;2792;52.452;9.752;2022-12-01T06:49:28;110.20;;;33.10;;
5539;SDS011;2792;52.452;9.752;2022-12-01T06:51:54;106.10;;;33.70;;
5539;SDS011;2792;52.452;9.752;2022-12-01T06:54:21;100.23;;;33.00;;
5539;SDS011;2792;52.452;9.752;2022-12-01T06:56:48;112.97;;;33.93;;
5539;SDS011;2792;52.452;9.752;2022-12-01T06:59:14;98.10;;;33.00;;
5539;SDS011;2792;52.452;9.752;2022-12-01T07:01:41;112.77;;;34.40;;
5539;SDS011;2792;52.452;9.752;2022-12-01T07:04:09;101.20;;;34.60;;
5539;SDS011;2792;52.452;9.752;2022-12-01T07:06:35;100.30;;;32.53;;
5539;SDS011;2792;52.452;9.752;2022-12-01T07:09:02;102.30;;;33.67;;
5539;SDS011;2792;52.452;9.752;2022-12-01T07:11:28;99.07;;;33.00;;
5539;SDS011;2792;52.452;9.752;2022-12-01T07:13:56;104.60;;;33.13;;
5539;SDS011;2792;52.452;9.752;2022-12-01T07:16:22;89.17;;;31.47;;
5539;SDS011;2792;52.452;9.752;2022-12-01T07:18:49;100.97;;;31.63;;
5539;SDS011;2792;52.452;9.752;2022-12-01T07:21:18;99.40;;;31.50;;
5539;SDS011;2792;52.452;9.752;2022-12-01T07:23:44;96.33;;;31.23;;
5539;SDS011;2792;52.452;9.752;2022-12-01T07:26:12;102.67;;;30.10;;
5539;SDS011;2792;52.452;9.752;2022-12-01T07:28:39;98.47;;;31.87;;
5539;SDS011;2792;52.452;9.752;2022-12-01T07:31:07;109.03;;;32.47;;
5539;SDS011;2792;52.452;9.752;2022-12-01T07:33:36;107.47;;;33.30;;
5539;SDS011;2792;52.452;9.752;2022-12-01T07:36:03;96.40;;;31.80;;
5539;SDS011;2792;52.452;9.752;2022-12-01T07:38:32;92.17;;;35.10;;
5539;SDS011;2792;52.452;9.752;2022-12-01T07:41:03;92.87;;;31.53;;
5539;SDS011;2792;52.452;9.752;2022-12-01T07:43:30;109.50;;;35.10;;
5539;SDS011;2792;52.452;9.752;2022-12-01T07:46:02;87.50;;;30.30;;
5539;SDS011;2792;52.452;9.752;2022-12-01T07:48:30;89.33;;;31.80;;
5539;SDS011;2792;52.452;9.752;2022-12-01T07:50:56;88.50;;;30.83;;
5539;SDS011;2792;52.452;9.752;2022-12-01T07:53:23;105.20;;;32.63;;
5539;SDS011;2792;52.452;9.752;2022-12-01T07:55:51;91.07;;;30.70;;
5539;SDS011;2792;52.452;9.752;2022-12-01T07:58:17;92.77;;;31.17;;
5539;SDS011;2792;52.452;9.752;2022-12-01T08:00:44;93.37;;;30.97;;
5539;SDS011;2792;52.452;9.752;2022-12-01T08:03:11;107.40;;;33.00;;
5539;SDS011;2792;52.452;9.752;2022-12-01T08:05:38;83.07;;;30.13;;
5539;SDS011;2792;52.452;9.752;2022-12-01T08:08:04;91.27;;;31.13;;
5539;SDS011;2792;52.452;9.752;2022-12-01T08:10:31;79.27;;;29.57;;
5539;SDS011;2792;52.452;9.752;2022-12-01T08:12:58;84.50;;;31.07;;
5539;SDS011;2792;52.452;9.752;2022-12-01T08:15:25;79.90;;;30.07;;
5539;SDS011;2792;52.452;9.752;2022-12-01T08:17:51;85.70;;;28.80;;
5539;SDS011;2792;52.452;9.752;2022-12-01T08:20:18;77.83;;;29.33;;
5539;SDS011;2792;52.452;9.752;2022-12-01T08:22:45;71.23;;;27.07;;
5539;SDS011;2792;52.452;9.752;2022-12-01T08:25:12;81.87;;;30.03;;
5539;SDS011;2792;52.452;9.752;2022-12-01T08:27:38;82.33;;;27.83;;
5539;SDS011;2792;52.452;9.752;2022-12-01T08:30:07;87.80;;;30.30;;
5539;SDS011;2792;52.452;9.752;2022-12-01T08:32:34;72.67;;;27.77;;
5539;SDS011;2792;52.452;9.752;2022-12-01T08:35:01;73.93;;;29.10;;
5539;SDS011;2792;52.452;9.752;2022-12-01T08:37:27;78.07;;;27.07;;
5539;SDS011;2792;52.452;9.752;2022-12-01T08:39:54;81.90;;;31.27;;
5539;SDS011;2792;52.452;9.752;2022-12-01T08:42:20;82.00;;;29.03;;
5539;SDS011;2792;52.452;9.752;2022-12-01T08:44:47;69.27;;;27.37;;
5539;SDS011;2792;52.452;9.752;2022-12-01T08:47:15;81.87;;;27.60;;
5539;SDS011;2792;52.452;9.752;2022-12-01T08:49:41;70.23;;;27.70;;
5539;SDS011;2792;52.452;9.752;2022-12-01T08:52:08;65.50;;;26.70;;
5539;SDS011;2792;52.452;9.752;2022-12-01T08:54:34;69.23;;;28.03;;
5539;SDS011;2792;52.452;9.752;2022-12-01T08:57:01;78.70;;;28.87;;
5539;SDS011;2792;52.452;9.752;2022-12-01T08:59:27;72.63;;;30.03;;
5539;SDS011;2792;52.452;9.752;2022-12-01T09:01:54;65.17;;;26.87;;
5539;SDS011;2792;52.452;9.752;2022-12-01T09:04:23;67.60;;;27.00;;
5539;SDS011;2792;52.452;9.752;2022-12-01T09:06:50;61.07;;;25.17;;
5539;SDS011;2792;52.452;9.752;2022-12-01T09:09:18;65.93;;;26.87;;
5539;SDS011;2792;52.452;9.752;2022-12-01T09:11:46;58.70;;;25.90;;
5539;SDS011;2792;52.452;9.752;2022-12-01T09:14:14;64.50;;;25.73;;
5539;SDS011;2792;52.452;9.752;2022-12-01T09:16:42;61.30;;;26.20;;
5539;SDS011;2792;52.452;9.752;2022-12-01T09:19:10;75.50;;;28.70;;
5539;SDS011;2792;52.452;9.752;2022-12-01T09:21:38;50.17;;;23.13;;
5539;SDS011;2792;52.452;9.752;2022-12-01T09:24:08;53.33;;;23.10;;
5539;SDS011;2792;52.452;9.752;2022-12-01T09:26:35;61.07;;;22.87;;
5539;SDS011;2792;52.452;9.752;2022-12-01T09:29:02;52.07;;;22.27;;
5539;SDS011;2792;52.452;9.752;2022-12-01T09:31:30;48.80;;;22.10;;
5539;SDS011;2792;52.452;9.752;2022-12-01T09:33:58;48.93;;;22.37;;
5539;SDS011;2792;52.452;9.752;2022-12-01T09:36:26;51.83;;;22.23;;
5539;SDS011;2792;52.452;9.752;2022-12-01T09:38:54;46.50;;;22.53;;
5539;SDS011;2792;52.452;9.752;2022-12-01T09:41:22;42.17;;;19.90;;
5539;SDS011;2792;52.452;9.752;2022-12-01T09:43:57;44.30;;;21.07;;
5539;SDS011;2792;52.452;9.752;2022-12-01T09:46:27;52.20;;;21.37;;
5539;SDS011;2792;52.452;9.752;2022-12-01T09:48:58;44.70;;;21.33;;
5539;SDS011;2792;52.452;9.752;2022-12-01T09:51:27;47.87;;;21.90;;
5539;SDS011;2792;52.452;9.752;2022-12-01T09:53:57;46.30;;;20.90;;
5539;SDS011;2792;52.452;9.752;2022-12-01T09:56:25;53.20;;;23.10;;
5539;SDS011;2792;52.452;9.752;2022-12-01T09:58:54;46.37;;;21.30;;
5539;SDS011;2792;52.452;9.752;2022-12-01T10:01:24;46.43;;;20.97;;
5539;SDS011;2792;52.452;9.752;2022-12-01T10:03:58;49.97;;;21.10;;
5539;SDS011;2792;52.452;9.752;2022-12-01T10:06:28;41.10;;;19.90;;
5539;SDS011;2792;52.452;9.752;2022-12-01T10:09:02;43.30;;;20.00;;
5539;SDS011;2792;52.452;9.752;2022-12-01T10:11:33;45.90;;;20.00;;
5539;SDS011;2792;52.452;9.752;2022-12-01T10:14:02;40.93;;;19.70;;
5539;SDS011;2792;52.452;9.752;2022-12-01T10:16:31;50.33;;;21.83;;
5539;SDS011;2792;52.452;9.752;2022-12-01T10:19:03;50.03;;;21.40;;
5539;SDS011;2792;52.452;9.752;2022-12-01T10:21:37;47.83;;;22.10;;
5539;SDS011;2792;52.452;9.752;2022-12-01T10:24:25;55.97;;;21.77;;
5539;SDS011;2792;52.452;9.752;2022-12-01T10:26:59;54.13;;;22.43;;
5539;SDS011;2792;52.452;9.752;2022-12-01T10:29:34;53.37;;;24.97;;
5539;SDS011;2792;52.452;9.752;2022-12-01T10:32:08;62.00;;;27.23;;
5539;SDS011;2792;52.452;9.752;2022-12-01T10:34:40;59.27;;;24.07;;
5539;SDS011;2792;52.452;9.752;2022-12-01T10:37:11;57.83;;;27.77;;
5539;SDS011;2792;52.452;9.752;2022-12-01T10:39:42;61.07;;;26.20;;
5539;SDS011;2792;52.452;9.752;2022-12-01T10:42:11;48.20;;;19.93;;
5539;SDS011;2792;52.452;9.752;2022-12-01T10:44:40;57.50;;;23.13;;
5539;SDS011;2792;52.452;9.752;2022-12-01T10:47:09;52.33;;;22.97;;
5539;SDS011;2792;52.452;9.752;2022-12-01T10:49:38;48.00;;;20.70;;
5539;SDS011;2792;52.452;9.752;2022-12-01T10:52:06;43.50;;;22.70;;
5539;SDS011;2792;52.452;9.752;2022-12-01T10:54:34;53.30;;;21.77;;
5539;SDS011;2792;52.452;9.752;2022-12-01T10:57:04;45.83;;;20.30;;
5539;SDS011;2792;52.452;9.752;2022-12-01T10:59:33;55.07;;;22.50;;
5539;SDS011;2792;52.452;9.752;2022-12-01T11:02:01;61.93;;;21.87;;
5539;SDS011;2792;52.452;9.752;2022-12-01T11:04:38;48.13;;;21.23;;
5539;SDS011;2792;52.452;9.752;2022-12-01T11:07:14;52.30;;;22.00;;
5539;SDS011;2792;52.452;9.752;2022-12-01T11:09:42;53.67;;;21.43;;
5539;SDS011;2792;52.452;9.752;2022-12-01T11:12:13;48.10;;;20.20;;
5539;SDS011;2792;52.452;9.752;2022-12-01T11:14:42;49.33;;;20.03;;
5539;SDS011;2792;52.452;9.752;2022-12-01T11:17:14;51.60;;;23.67;;
5539;SDS011;2792;52.452;9.752;2022-12-01T11:19:42;47.23;;;21.13;;
5539;SDS011;2792;52.452;9.752;2022-12-01T11:22:17;45.13;;;21.30;;
5539;SDS011;2792;52.452;9.752;2022-12-01T11:24:54;46.23;;;20.90;;
5539;SDS011;2792;52.452;9.752;2022-12-01T11:27:24;43.13;;;18.90;;
5539;SDS011;2792;52.452;9.752;2022-12-01T11:29:53;49.40;;;21.63;;
5539;SDS011;2792;52.452;9.752;2022-12-01T11:32:22;43.80;;;18.87;;
5539;SDS011;2792;52.452;9.752;2022-12-01T11:34:51;48.57;;;22.43;;
5539;SDS011;2792;52.452;9.752;2022-12-01T11:37:20;54.07;;;21.43;;
5539;SDS011;2792;52.452;9.752;2022-12-01T11:39:47;51.73;;;21.67;;
5539;SDS011;2792;52.452;9.752;2022-12-01T11:42:18;47.30;;;20.90;;
5539;SDS011;2792;52.452;9.752;2022-12-01T11:44:50;48.17;;;20.63;;
5539;SDS011;2792;52.452;9.752;2022-12-01T11:47:18;44.60;;;20.10;;
5539;SDS011;2792;52.452;9.752;2022-12-01T11:49:46;48.00;;;23.17;;
5539;SDS011;2792;52.452;9.752;2022-12-01T11:52:21;44.47;;;20.73;;
5539;SDS011;2792;52.452;9.752;2022-12-01T11:54:55;41.50;;;19.93;;
5539;SDS011;2792;52.452;9.752;2022-12-01T11:57:26;49.43;;;21.90;;
5539;SDS011;2792;52.452;9.752;2022-12-01T11:59:55;46.10;;;20.60;;
5539;SDS011;2792;52.452;9.752;2022-12-01T12:02:26;49.37;;;20.90;;
5539;SDS011;2792;52.452;9.752;2022-12-01T12:05:02;50.17;;;21.10;;
5539;SDS011;2792;52.452;9.752;2022-12-01T12:07:36;46.43;;;19.83;;
5539;SDS011;2792;52.452;9.752;2022-12-01T12:10:11;42.93;;;19.60;;
5539;SDS011;2792;52.452;9.752;2022-12-01T12:12:48;38.07;;;18.60;;
5539;SDS011;2792;52.452;9.752;2022-12-01T12:15:27;37.03;;;19.63;;
5539;SDS011;2792;52.452;9.752;2022-12-01T12:18:03;49.27;;;20.60;;
5539;SDS011;2792;52.452;9.752;2022-12-01T12:20:41;42.13;;;20.10;;
5539;SDS011;2792;52.452;9.752;2022-12-01T12:23:21;46.27;;;20.00;;
5539;SDS011;2792;52.452;9.752;2022-12-01T12:25:57;44.97;;;20.97;;
5539;SDS011;2792;52.452;9.752;2022-12-01T12:28:32;41.80;;;21.47;;
5539;SDS011;2792;52.452;9.752;2022-12-01T12:31:08;44.60;;;20.03;;
5539;SDS011;2792;52.452;9.752;2022-12-01T12:33:43;48.07;;;21.17;;
5539;SDS011;2792;52.452;9.752;2022-12-01T12:36:16;44.37;;;19.57;;
5539;SDS011;2792;52.452;9.752;2022-12-01T12:38:53;53.23;;;21.30;;
5539;SDS011;2792;52.452;9.752;2022-12-01T12:41:27;48.53;;;20.90;;
5539;SDS011;2792;52.452;9.752;2022-12-01T12:44:02;49.43;;;21.97;;
5539;SDS011;2792;52.452;9.752;2022-12-01T12:46:41;47.37;;;22.37;;
5539;SDS011;2792;52.452;9.752;2022-12-01T12:49:16;45.73;;;21.43;;
5539;SDS011;2792;52.452;9.752;2022-12-01T12:51:51;51.00;;;20.87;;
5539;SDS011;2792;52.452;9.752;2022-12-01T12:54:20;48.90;;;22.30;;
5539;SDS011;2792;52.452;9.752;2022-12-01T12:56:51;52.07;;;21.63;;
5539;SDS011;2792;52.452;9.752;2022-12-01T12:59:21;56.00;;;22.50;;
5539;SDS011;2792;52.452;9.752;2022-12-01T13:01:54;57.00;;;21.40;;
5539;SDS011;2792;52.452;9.752;2022-12-01T13:04:26;46.40;;;20.80;;
5539;SDS011;2792;52.452;9.752;2022-12-01T13:06:59;52.27;;;22.20;;
5539;SDS011;2792;52.452;9.752;2022-12-01T13:09:29;46.30;;;21.30;;
5539;SDS011;2792;52.452;9.752;2022-12-01T13:11:58;48.07;;;20.97;;
5539;SDS011;2792;52.452;9.752;2022-12-01T13:14:28;47.30;;;22.00;;
5539;SDS011;2792;52.452;9.752;2022-12-01T13:17:01;59.47;;;23.53;;
5539;SDS011;2792;52.452;9.752;2022-12-01T13:19:32;52.13;;;22.30;;
5539;SDS011;2792;52.452;9.752;2022-12-01T13:22:00;55.53;;;22.57;;
5539;SDS011;2792;52.452;9.752;2022-12-01T13:24:28;53.20;;;22.17;;
5539;SDS011;2792;52.452;9.752;2022-12-01T13:26:58;53.03;;;21.30;;
5539;SDS011;2792;52.452;9.752;2022-12-01T13:29:26;47.47;;;20.30;;
5539;SDS011;2792;52.452;9.752;2022-12-01T13:31:54;53.63;;;21.57;;
5539;SDS011;2792;52.452;9.752;2022-12-01T13:34:23;49.50;;;22.03;;
5539;SDS011;2792;52.452;9.752;2022-12-01T13:36:51;50.90;;;21.70;;
5539;SDS011;2792;52.452;9.752;2022-12-01T13:39:19;48.50;;;20.67;;
5539;SDS011;2792;52.452;9.752;2022-12-01T13:41:55;53.27;;;21.27;;
5539;SDS011;2792;52.452;9.752;2022-12-01T13:44:24;47.07;;;20.67;;
5539;SDS011;2792;52.452;9.752;2022-12-01T13:46:55;52.37;;;20.77;;
5539;SDS011;2792;52.452;9.752;2022-12-01T13:49:35;52.93;;;21.63;;
5539;SDS011;2792;52.452;9.752;2022-12-01T13:52:25;56.33;;;22.07;;
5539;SDS011;2792;52.452;9.752;2022-12-01T13:57:47;53.83;;;19.90;;
5539;SDS011;2792;52.452;9.752;2022-12-01T14:00:21;53.63;;;19.67;;
5539;SDS011;2792;52.452;9.752;2022-12-01T14:05:55;48.03;;;19.73;;
5539;SDS011;2792;52.452;9.752;2022-12-01T14:08:32;44.33;;;19.67;;
5539;SDS011;2792;52.452;9.752;2022-12-01T14:11:00;50.83;;;19.67;;
5539;SDS011;2792;52.452;9.752;2022-12-01T14:13:28;56.07;;;22.80;;
5539;SDS011;2792;52.452;9.752;2022-12-01T14:15:56;48.93;;;22.40;;
5539;SDS011;2792;52.452;9.752;2022-12-01T14:18:26;62.90;;;24.00;;
5539;SDS011;2792;52.452;9.752;2022-12-01T14:20:58;62.20;;;23.03;;
5539;SDS011;2792;52.452;9.752;2022-12-01T14:23:27;51.63;;;21.50;;
5539;SDS011;2792;52.452;9.752;2022-12-01T14:26:02;57.80;;;22.30;;
5539;SDS011;2792;52.452;9.752;2022-12-01T14:34:44;60.93;;;21.33;;
5539;SDS011;2792;52.452;9.752;2022-12-01T14:37:13;57.40;;;22.40;;
5539;SDS011;2792;52.452;9.752;2022-12-01T14:39:43;58.07;;;20.50;;
5539;SDS011;2792;52.452;9.752;2022-12-01T14:42:13;57.87;;;21.93;;
5539;SDS011;2792;52.452;9.752;2022-12-01T14:45:02;59.07;;;23.50;;
5539;SDS011;2792;52.452;9.752;2022-12-01T14:47:37;57.67;;;20.97;;
5539;SDS011;2792;52.452;9.752;2022-12-01T14:50:10;61.07;;;23.10;;
5539;SDS011;2792;52.452;9.752;2022-12-01T14:52:41;55.10;;;20.57;;
5539;SDS011;2792;52.452;9.752;2022-12-01T14:55:12;55.30;;;22.60;;
5539;SDS011;2792;52.452;9.752;2022-12-01T14:57:41;62.47;;;21.93;;
5539;SDS011;2792;52.452;9.752;2022-12-01T15:00:11;55.00;;;22.73;;
5539;SDS011;2792;52.452;9.752;2022-12-01T15:02:40;57.93;;;21.13;;
5539;SDS011;2792;52.452;9.752;2022-12-01T15:05:08;54.03;;;21.57;;
5539;SDS011;2792;52.452;9.752;2022-12-01T15:07:37;57.10;;;22.37;;
5539;SDS011;2792;52.452;9.752;2022-12-01T15:10:14;53.73;;;20.80;;